sensor_id;sensor_type;location;lat;lon;timestamp;temperature;humidity
45207;DHT22;30950;53.086;21.576;2022-09-09T00:02:21;15.00;70.30
45207;DHT22;30950;53.086;21.576;2022-09-09T00:05:04;15.00;70.40
45207;DHT22;30950;53.086;21.576;2022-09-09T00:07:51;14.90;70.20
45207;DHT22;30950;53.086;21.576;2022-09-09T00:10:29;14.90;70.50
45207;DHT22;30950;53.086;21.576;2022-09-09T00:16:21;14.90;70.80
45207;DHT22;30950;53.086;21.576;2022-09-09T00:21:26;14.80;71.10
45207;DHT22;30950;53.086;21.576;2022-09-09T00:24:00;14.80;70.80
45207;DHT22;30950;53.086;21.576;2022-09-09T00:26:45;14.80;70.80
45207;DHT22;30950;53.086;21.576;2022-09-09T00:29:41;14.70;71.00
45207;DHT22;30950;53.086;21.576;2022-09-09T00:32:18;14.70;71.20
45207;DHT22;30950;53.086;21.576;2022-09-09T00:34:52;14.60;71.20
45207;DHT22;30950;53.086;21.576;2022-09-09T00:37:22;14.60;71.20
45207;DHT22;30950;53.086;21.576;2022-09-09T00:39:55;14.60;71.40
45207;DHT22;30950;53.086;21.576;2022-09-09T00:48:11;14.50;71.60
45207;DHT22;30950;53.086;21.576;2022-09-09T00:50:59;14.50;71.70
45207;DHT22;30950;53.086;21.576;2022-09-09T00:53:39;14.50;71.80
45207;DHT22;30950;53.086;21.576;2022-09-09T00:56:18;14.40;71.80
45207;DHT22;30950;53.086;21.576;2022-09-09T01:01:23;14.40;71.90
45207;DHT22;30950;53.086;21.576;2022-09-09T01:03:55;14.40;72.10
45207;DHT22;30950;53.086;21.576;2022-09-09T01:19:59;14.30;72.30
45207;DHT22;30950;53.086;21.576;2022-09-09T01:28:13;14.30;72.30
45207;DHT22;30950;53.086;21.576;2022-09-09T01:30:43;14.30;72.30
45207;DHT22;30950;53.086;21.576;2022-09-09T01:33:17;14.30;72.20
45207;DHT22;30950;53.086;21.576;2022-09-09T01:38:17;14.30;72.40
45207;DHT22;30950;53.086;21.576;2022-09-09T01:40:47;14.20;72.40
45207;DHT22;30950;53.086;21.576;2022-09-09T01:43:14;14.20;72.40
45207;DHT22;30950;53.086;21.576;2022-09-09T01:45:42;14.20;72.50
45207;DHT22;30950;53.086;21.576;2022-09-09T01:48:11;14.20;72.60
45207;DHT22;30950;53.086;21.576;2022-09-09T01:50:42;14.20;72.70
45207;DHT22;30950;53.086;21.576;2022-09-09T01:53:11;14.20;72.50
45207;DHT22;30950;53.086;21.576;2022-09-09T01:55:42;14.20;72.70
45207;DHT22;30950;53.086;21.576;2022-09-09T02:01:42;14.20;72.80
45207;DHT22;30950;53.086;21.576;2022-09-09T02:03:52;14.20;73.00
45207;DHT22;30950;53.086;21.576;2022-09-09T02:06:36;14.20;72.90
45207;DHT22;30950;53.086;21.576;2022-09-09T02:09:19;14.20;72.90
45207;DHT22;30950;53.086;21.576;2022-09-09T02:11:49;14.20;72.90
45207;DHT22;30950;53.086;21.576;2022-09-09T02:14:34;14.20;73.00
45207;DHT22;30950;53.086;21.576;2022-09-09T02:17:11;14.20;73.10
45207;DHT22;30950;53.086;21.576;2022-09-09T02:20:13;14.20;73.10
45207;DHT22;30950;53.086;21.576;2022-09-09T02:22:49;14.20;73.10
45207;DHT22;30950;53.086;21.576;2022-09-09T02:25:22;14.20;73.00
45207;DHT22;30950;53.086;21.576;2022-09-09T02:27:53;14.20;73.10
45207;DHT22;30950;53.086;21.576;2022-09-09T02:30:22;14.20;73.00
45207;DHT22;30950;53.086;21.576;2022-09-09T02:32:56;14.20;73.00
45207;DHT22;30950;53.086;21.576;2022-09-09T02:35:44;14.20;73.00
45207;DHT22;30950;53.086;21.576;2022-09-09T02:38:16;14.20;73.00
45207;DHT22;30950;53.086;21.576;2022-09-09T02:40:56;14.20;73.00
45207;DHT22;30950;53.086;21.576;2022-09-09T02:43:23;14.20;73.00
45207;DHT22;30950;53.086;21.576;2022-09-09T02:46:03;14.20;73.00
45207;DHT22;30950;53.086;21.576;2022-09-09T02:51:38;14.20;73.10
45207;DHT22;30950;53.086;21.576;2022-09-09T02:54:16;14.20;73.10
45207;DHT22;30950;53.086;21.576;2022-09-09T02:56:51;14.20;73.20
45207;DHT22;30950;53.086;21.576;2022-09-09T02:59:27;14.20;73.20
45207;DHT22;30950;53.086;21.576;2022-09-09T03:01:54;14.10;73.20
45207;DHT22;30950;53.086;21.576;2022-09-09T03:04:22;14.20;73.20
45207;DHT22;30950;53.086;21.576;2022-09-09T03:06:52;14.20;73.30
45207;DHT22;30950;53.086;21.576;2022-09-09T03:09:20;14.20;73.50
45207;DHT22;30950;53.086;21.576;2022-09-09T03:11:49;14.20;73.40
45207;DHT22;30950;53.086;21.576;2022-09-09T03:14:18;14.10;73.40
45207;DHT22;30950;53.086;21.576;2022-09-09T03:16:50;14.10;73.70
45207;DHT22;30950;53.086;21.576;2022-09-09T03:19:17;14.10;73.90
45207;DHT22;30950;53.086;21.576;2022-09-09T03:21:46;14.10;74.30
45207;DHT22;30950;53.086;21.576;2022-09-09T03:24:14;14.00;74.60
45207;DHT22;30950;53.086;21.576;2022-09-09T03:26:42;14.00;75.50
45207;DHT22;30950;53.086;21.576;2022-09-09T03:29:15;13.90;75.80
45207;DHT22;30950;53.086;21.576;2022-09-09T03:31:43;13.80;76.50
45207;DHT22;30950;53.086;21.576;2022-09-09T03:34:11;13.70;77.10
45207;DHT22;30950;53.086;21.576;2022-09-09T03:36:40;13.70;78.40
45207;DHT22;30950;53.086;21.576;2022-09-09T03:39:11;13.50;79.60
45207;DHT22;30950;53.086;21.576;2022-09-09T03:41:41;13.40;80.70
45207;DHT22;30950;53.086;21.576;2022-09-09T03:44:09;13.20;82.50
45207;DHT22;30950;53.086;21.576;2022-09-09T03:46:39;13.10;83.80
45207;DHT22;30950;53.086;21.576;2022-09-09T03:49:07;12.90;86.10
45207;DHT22;30950;53.086;21.576;2022-09-09T03:51:34;12.80;89.80
45207;DHT22;30950;53.086;21.576;2022-09-09T03:54:04;12.60;92.70
45207;DHT22;30950;53.086;21.576;2022-09-09T03:56:36;12.50;94.40
45207;DHT22;30950;53.086;21.576;2022-09-09T03:59:03;12.30;97.00
45207;DHT22;30950;53.086;21.576;2022-09-09T04:01:31;12.20;99.90
45207;DHT22;30950;53.086;21.576;2022-09-09T04:03:59;12.10;99.90
45207;DHT22;30950;53.086;21.576;2022-09-09T04:06:26;11.90;99.90
45207;DHT22;30950;53.086;21.576;2022-09-09T04:08:53;11.80;99.90
45207;DHT22;30950;53.086;21.576;2022-09-09T04:11:23;11.70;99.90
45207;DHT22;30950;53.086;21.576;2022-09-09T04:13:53;11.60;99.90
45207;DHT22;30950;53.086;21.576;2022-09-09T04:16:20;11.50;99.90
45207;DHT22;30950;53.086;21.576;2022-09-09T04:18:48;11.40;99.90
45207;DHT22;30950;53.086;21.576;2022-09-09T04:21:16;11.40;99.90
45207;DHT22;30950;53.086;21.576;2022-09-09T04:23:45;11.30;99.90
45207;DHT22;30950;53.086;21.576;2022-09-09T04:26:12;11.20;99.90
45207;DHT22;30950;53.086;21.576;2022-09-09T04:28:40;11.10;99.90
45207;DHT22;30950;53.086;21.576;2022-09-09T04:31:20;11.10;99.90
45207;DHT22;30950;53.086;21.576;2022-09-09T04:33:53;11.00;99.90
45207;DHT22;30950;53.086;21.576;2022-09-09T04:36:21;11.00;99.90
45207;DHT22;30950;53.086;21.576;2022-09-09T04:38:51;10.90;99.90
45207;DHT22;30950;53.086;21.576;2022-09-09T04:41:19;10.80;99.90
45207;DHT22;30950;53.086;21.576;2022-09-09T04:43:50;10.90;99.90
45207;DHT22;30950;53.086;21.576;2022-09-09T04:46:21;10.80;99.90
45207;DHT22;30950;53.086;21.576;2022-09-09T04:48:50;10.80;99.90
45207;DHT22;30950;53.086;21.576;2022-09-09T04:51:19;10.80;99.90
45207;DHT22;30950;53.086;21.576;2022-09-09T04:53:48;10.80;99.90
45207;DHT22;30950;53.086;21.576;2022-09-09T04:56:18;10.80;99.90
45207;DHT22;30950;53.086;21.576;2022-09-09T04:58:50;10.80;99.90
45207;DHT22;30950;53.086;21.576;2022-09-09T05:01:21;10.80;99.90
45207;DHT22;30950;53.086;21.576;2022-09-09T05:03:52;10.70;99.90
45207;DHT22;30950;53.086;21.576;2022-09-09T05:06:22;10.80;99.90
45207;DHT22;30950;53.086;21.576;2022-09-09T05:08:55;10.70;99.90
45207;DHT22;30950;53.086;21.576;2022-09-09T05:11:30;10.70;99.90
45207;DHT22;30950;53.086;21.576;2022-09-09T05:14:20;10.70;99.90
45207;DHT22;30950;53.086;21.576;2022-09-09T05:16:47;10.60;99.90
45207;DHT22;30950;53.086;21.576;2022-09-09T05:19:16;10.60;99.90
45207;DHT22;30950;53.086;21.576;2022-09-09T05:21:48;10.60;99.90
45207;DHT22;30950;53.086;21.576;2022-09-09T05:24:18;10.50;99.90
45207;DHT22;30950;53.086;21.576;2022-09-09T05:26:49;10.50;99.90
45207;DHT22;30950;53.086;21.576;2022-09-09T05:29:16;10.50;99.90
45207;DHT22;30950;53.086;21.576;2022-09-09T05:31:46;10.50;99.90
45207;DHT22;30950;53.086;21.576;2022-09-09T05:34:18;10.50;99.90
45207;DHT22;30950;53.086;21.576;2022-09-09T05:36:46;10.40;99.90
45207;DHT22;30950;53.086;21.576;2022-09-09T05:39:14;10.50;99.90
45207;DHT22;30950;53.086;21.576;2022-09-09T05:41:42;10.40;99.90
45207;DHT22;30950;53.086;21.576;2022-09-09T05:44:10;10.50;99.90
45207;DHT22;30950;53.086;21.576;2022-09-09T05:46:39;10.50;99.90
45207;DHT22;30950;53.086;21.576;2022-09-09T05:49:07;10.50;99.90
45207;DHT22;30950;53.086;21.576;2022-09-09T05:51:35;10.50;99.90
45207;DHT22;30950;53.086;21.576;2022-09-09T05:54:08;10.50;99.90
45207;DHT22;30950;53.086;21.576;2022-09-09T05:56:41;10.50;99.90
45207;DHT22;30950;53.086;21.576;2022-09-09T05:59:09;10.50;99.90
45207;DHT22;30950;53.086;21.576;2022-09-09T06:01:38;10.50;99.90
45207;DHT22;30950;53.086;21.576;2022-09-09T06:04:10;10.50;99.90
45207;DHT22;30950;53.086;21.576;2022-09-09T06:06:39;10.50;99.90
45207;DHT22;30950;53.086;21.576;2022-09-09T06:09:16;10.40;99.90
45207;DHT22;30950;53.086;21.576;2022-09-09T06:11:43;10.40;99.90
45207;DHT22;30950;53.086;21.576;2022-09-09T06:14:12;10.40;99.90
45207;DHT22;30950;53.086;21.576;2022-09-09T06:16:40;10.40;99.90
45207;DHT22;30950;53.086;21.576;2022-09-09T06:19:16;10.40;99.90
45207;DHT22;30950;53.086;21.576;2022-09-09T06:21:44;10.40;99.90
45207;DHT22;30950;53.086;21.576;2022-09-09T06:24:12;10.40;99.90
45207;DHT22;30950;53.086;21.576;2022-09-09T06:26:41;10.40;99.90
45207;DHT22;30950;53.086;21.576;2022-09-09T06:29:12;10.30;99.90
45207;DHT22;30950;53.086;21.576;2022-09-09T06:31:41;10.30;99.90
45207;DHT22;30950;53.086;21.576;2022-09-09T06:34:29;10.30;99.90
45207;DHT22;30950;53.086;21.576;2022-09-09T06:36:58;10.30;99.90
45207;DHT22;30950;53.086;21.576;2022-09-09T06:39:32;10.30;99.90
45207;DHT22;30950;53.086;21.576;2022-09-09T06:42:00;10.40;99.90
45207;DHT22;30950;53.086;21.576;2022-09-09T06:44:56;10.40;99.90
45207;DHT22;30950;53.086;21.576;2022-09-09T06:47:32;10.40;99.90
45207;DHT22;30950;53.086;21.576;2022-09-09T06:50:01;10.40;99.90
45207;DHT22;30950;53.086;21.576;2022-09-09T06:52:32;10.40;99.90
45207;DHT22;30950;53.086;21.576;2022-09-09T06:55:01;10.40;99.90
45207;DHT22;30950;53.086;21.576;2022-09-09T06:57:30;10.40;99.90
45207;DHT22;30950;53.086;21.576;2022-09-09T07:00:08;10.40;99.90
45207;DHT22;30950;53.086;21.576;2022-09-09T07:02:37;10.40;99.90
45207;DHT22;30950;53.086;21.576;2022-09-09T07:05:08;10.40;99.90
45207;DHT22;30950;53.086;21.576;2022-09-09T07:07:36;10.40;99.90
45207;DHT22;30950;53.086;21.576;2022-09-09T07:10:05;10.40;99.90
45207;DHT22;30950;53.086;21.576;2022-09-09T07:12:34;10.40;99.90
45207;DHT22;30950;53.086;21.576;2022-09-09T07:15:02;10.40;99.90
45207;DHT22;30950;53.086;21.576;2022-09-09T07:17:29;10.40;99.90
45207;DHT22;30950;53.086;21.576;2022-09-09T07:19:59;10.50;99.90
45207;DHT22;30950;53.086;21.576;2022-09-09T07:22:28;10.50;99.90
45207;DHT22;30950;53.086;21.576;2022-09-09T07:24:56;10.50;99.90
45207;DHT22;30950;53.086;21.576;2022-09-09T07:27:25;10.50;99.90
45207;DHT22;30950;53.086;21.576;2022-09-09T07:29:52;10.50;99.90
45207;DHT22;30950;53.086;21.576;2022-09-09T07:32:21;10.50;99.90
45207;DHT22;30950;53.086;21.576;2022-09-09T07:34:48;10.60;99.90
45207;DHT22;30950;53.086;21.576;2022-09-09T07:37:17;10.60;99.90
45207;DHT22;30950;53.086;21.576;2022-09-09T07:39:46;10.60;99.90
45207;DHT22;30950;53.086;21.576;2022-09-09T07:42:16;10.60;99.90
45207;DHT22;30950;53.086;21.576;2022-09-09T07:44:44;10.60;99.90
45207;DHT22;30950;53.086;21.576;2022-09-09T07:47:14;10.70;99.90
45207;DHT22;30950;53.086;21.576;2022-09-09T07:49:47;10.70;99.90
45207;DHT22;30950;53.086;21.576;2022-09-09T07:52:21;10.70;99.90
45207;DHT22;30950;53.086;21.576;2022-09-09T07:54:53;10.70;99.90
45207;DHT22;30950;53.086;21.576;2022-09-09T07:57:21;10.70;99.90
45207;DHT22;30950;53.086;21.576;2022-09-09T07:59:49;10.70;99.90
45207;DHT22;30950;53.086;21.576;2022-09-09T08:02:18;10.70;99.90
45207;DHT22;30950;53.086;21.576;2022-09-09T08:04:45;10.80;99.90
45207;DHT22;30950;53.086;21.576;2022-09-09T08:07:15;10.80;99.90
45207;DHT22;30950;53.086;21.576;2022-09-09T08:09:49;10.90;99.90
45207;DHT22;30950;53.086;21.576;2022-09-09T08:12:21;10.90;99.90
45207;DHT22;30950;53.086;21.576;2022-09-09T08:14:48;10.90;99.90
45207;DHT22;30950;53.086;21.576;2022-09-09T08:17:18;10.90;99.90
45207;DHT22;30950;53.086;21.576;2022-09-09T08:19:46;11.00;99.90
45207;DHT22;30950;53.086;21.576;2022-09-09T08:22:18;11.00;99.90
45207;DHT22;30950;53.086;21.576;2022-09-09T08:24:46;11.00;99.90
45207;DHT22;30950;53.086;21.576;2022-09-09T08:27:14;11.10;99.90
45207;DHT22;30950;53.086;21.576;2022-09-09T08:29:41;11.10;99.90
45207;DHT22;30950;53.086;21.576;2022-09-09T08:32:09;11.10;99.90
45207;DHT22;30950;53.086;21.576;2022-09-09T08:34:38;11.10;99.90
45207;DHT22;30950;53.086;21.576;2022-09-09T08:37:12;11.20;99.90
45207;DHT22;30950;53.086;21.576;2022-09-09T08:39:41;11.20;99.90
45207;DHT22;30950;53.086;21.576;2022-09-09T08:42:33;11.20;99.90
45207;DHT22;30950;53.086;21.576;2022-09-09T08:47:51;11.20;99.90
45207;DHT22;30950;53.086;21.576;2022-09-09T08:50:28;11.20;99.90
45207;DHT22;30950;53.086;21.576;2022-09-09T09:07:16;11.30;99.90
45207;DHT22;30950;53.086;21.576;2022-09-09T09:12:19;11.40;99.90
45207;DHT22;30950;53.086;21.576;2022-09-09T09:14:48;11.40;99.90
45207;DHT22;30950;53.086;21.576;2022-09-09T09:17:22;11.40;99.90
45207;DHT22;30950;53.086;21.576;2022-09-09T09:19:51;11.40;99.90
45207;DHT22;30950;53.086;21.576;2022-09-09T09:22:41;11.40;99.90
45207;DHT22;30950;53.086;21.576;2022-09-09T09:25:19;11.50;99.90
45207;DHT22;30950;53.086;21.576;2022-09-09T09:28:24;11.50;99.90
45207;DHT22;30950;53.086;21.576;2022-09-09T09:30:58;11.50;99.90
45207;DHT22;30950;53.086;21.576;2022-09-09T09:33:35;11.50;99.90
45207;DHT22;30950;53.086;21.576;2022-09-09T09:36:13;11.50;99.90
45207;DHT22;30950;53.086;21.576;2022-09-09T09:38:59;11.50;99.90
45207;DHT22;30950;53.086;21.576;2022-09-09T09:41:48;11.60;99.90
45207;DHT22;30950;53.086;21.576;2022-09-09T09:44:30;11.60;99.90
45207;DHT22;30950;53.086;21.576;2022-09-09T09:47:14;11.60;99.90
45207;DHT22;30950;53.086;21.576;2022-09-09T09:49:56;11.60;99.90
45207;DHT22;30950;53.086;21.576;2022-09-09T09:52:29;11.70;99.90
45207;DHT22;30950;53.086;21.576;2022-09-09T09:54:59;11.70;99.90
45207;DHT22;30950;53.086;21.576;2022-09-09T09:57:34;11.70;99.90
45207;DHT22;30950;53.086;21.576;2022-09-09T10:00:17;11.70;99.90
45207;DHT22;30950;53.086;21.576;2022-09-09T10:02:53;11.80;99.90
45207;DHT22;30950;53.086;21.576;2022-09-09T10:05:29;11.80;99.90
45207;DHT22;30950;53.086;21.576;2022-09-09T10:19:08;11.90;99.90
45207;DHT22;30950;53.086;21.576;2022-09-09T10:25:04;11.90;99.90
45207;DHT22;30950;53.086;21.576;2022-09-09T10:30:55;11.90;99.90
45207;DHT22;30950;53.086;21.576;2022-09-09T10:33:44;11.90;99.90
45207;DHT22;30950;53.086;21.576;2022-09-09T10:36:24;12.00;99.90
45207;DHT22;30950;53.086;21.576;2022-09-09T10:39:33;12.00;99.90
45207;DHT22;30950;53.086;21.576;2022-09-09T10:42:12;12.10;99.90
45207;DHT22;30950;53.086;21.576;2022-09-09T10:45:02;12.10;99.90
45207;DHT22;30950;53.086;21.576;2022-09-09T10:50:43;12.20;99.90
45207;DHT22;30950;53.086;21.576;2022-09-09T10:53:52;12.20;99.90
45207;DHT22;30950;53.086;21.576;2022-09-09T10:56:22;12.20;99.90
45207;DHT22;30950;53.086;21.576;2022-09-09T10:59:02;12.20;99.90
45207;DHT22;30950;53.086;21.576;2022-09-09T11:02:05;12.20;99.90
45207;DHT22;30950;53.086;21.576;2022-09-09T11:04:45;12.30;99.90
45207;DHT22;30950;53.086;21.576;2022-09-09T11:07:36;12.30;99.90
45207;DHT22;30950;53.086;21.576;2022-09-09T11:10:39;12.20;99.90
45207;DHT22;30950;53.086;21.576;2022-09-09T11:13:17;12.20;99.90
45207;DHT22;30950;53.086;21.576;2022-09-09T11:15:50;12.20;99.90
45207;DHT22;30950;53.086;21.576;2022-09-09T11:18:22;12.30;99.90
45207;DHT22;30950;53.086;21.576;2022-09-09T11:21:00;12.30;99.90
45207;DHT22;30950;53.086;21.576;2022-09-09T11:23:41;12.30;99.90
45207;DHT22;30950;53.086;21.576;2022-09-09T11:26:15;12.30;99.90
45207;DHT22;30950;53.086;21.576;2022-09-09T11:37:04;12.40;99.90
45207;DHT22;30950;53.086;21.576;2022-09-09T11:44:42;12.30;99.90
45207;DHT22;30950;53.086;21.576;2022-09-09T11:47:24;12.30;99.90
45207;DHT22;30950;53.086;21.576;2022-09-09T11:52:44;12.20;99.90
45207;DHT22;30950;53.086;21.576;2022-09-09T11:57:58;12.20;99.90
45207;DHT22;30950;53.086;21.576;2022-09-09T12:00:41;12.30;99.90
45207;DHT22;30950;53.086;21.576;2022-09-09T12:03:49;12.30;99.90
45207;DHT22;30950;53.086;21.576;2022-09-09T12:06:31;12.30;99.90
45207;DHT22;30950;53.086;21.576;2022-09-09T12:09:12;12.30;99.90
45207;DHT22;30950;53.086;21.576;2022-09-09T12:11:42;12.30;99.90
45207;DHT22;30950;53.086;21.576;2022-09-09T12:14:34;12.20;99.90
45207;DHT22;30950;53.086;21.576;2022-09-09T12:19:42;12.20;99.90
45207;DHT22;30950;53.086;21.576;2022-09-09T12:22:55;12.20;99.90
45207;DHT22;30950;53.086;21.576;2022-09-09T12:29:06;12.10;99.90
45207;DHT22;30950;53.086;21.576;2022-09-09T12:34:13;12.10;99.90
45207;DHT22;30950;53.086;21.576;2022-09-09T12:36:44;12.10;99.90
45207;DHT22;30950;53.086;21.576;2022-09-09T12:39:35;12.20;99.90
45207;DHT22;30950;53.086;21.576;2022-09-09T12:42:04;12.20;99.90
45207;DHT22;30950;53.086;21.576;2022-09-09T12:44:32;12.20;99.90
45207;DHT22;30950;53.086;21.576;2022-09-09T12:47:02;12.20;99.90
45207;DHT22;30950;53.086;21.576;2022-09-09T12:49:34;12.20;99.90
45207;DHT22;30950;53.086;21.576;2022-09-09T12:52:32;12.20;99.90
45207;DHT22;30950;53.086;21.576;2022-09-09T12:55:04;12.20;99.90
45207;DHT22;30950;53.086;21.576;2022-09-09T12:57:37;12.20;99.90
45207;DHT22;30950;53.086;21.576;2022-09-09T13:00:12;12.30;99.90
45207;DHT22;30950;53.086;21.576;2022-09-09T13:02:54;12.20;99.90
45207;DHT22;30950;53.086;21.576;2022-09-09T13:05:38;12.30;99.90
45207;DHT22;30950;53.086;21.576;2022-09-09T13:08:11;12.30;99.90
45207;DHT22;30950;53.086;21.576;2022-09-09T13:10:46;12.30;99.90
45207;DHT22;30950;53.086;21.576;2022-09-09T13:13:38;12.30;99.90
45207;DHT22;30950;53.086;21.576;2022-09-09T13:16:22;12.30;99.90
45207;DHT22;30950;53.086;21.576;2022-09-09T13:18:50;12.30;99.90
45207;DHT22;30950;53.086;21.576;2022-09-09T13:21:18;12.30;99.90
45207;DHT22;30950;53.086;21.576;2022-09-09T13:23:50;12.30;99.90
45207;DHT22;30950;53.086;21.576;2022-09-09T13:26:24;12.30;99.90
45207;DHT22;30950;53.086;21.576;2022-09-09T13:28:53;12.30;99.90
45207;DHT22;30950;53.086;21.576;2022-09-09T13:31:24;12.30;99.90
45207;DHT22;30950;53.086;21.576;2022-09-09T13:33:52;12.30;99.90
45207;DHT22;30950;53.086;21.576;2022-09-09T13:36:34;12.30;99.90
45207;DHT22;30950;53.086;21.576;2022-09-09T13:39:03;12.30;99.90
45207;DHT22;30950;53.086;21.576;2022-09-09T13:41:42;12.30;99.90
45207;DHT22;30950;53.086;21.576;2022-09-09T13:44:21;12.30;99.90
45207;DHT22;30950;53.086;21.576;2022-09-09T13:49:44;12.20;99.90
45207;DHT22;30950;53.086;21.576;2022-09-09T13:52:14;12.20;99.90
45207;DHT22;30950;53.086;21.576;2022-09-09T13:54:51;12.20;99.90
45207;DHT22;30950;53.086;21.576;2022-09-09T13:57:23;12.20;99.90
45207;DHT22;30950;53.086;21.576;2022-09-09T13:59:53;12.20;99.90
45207;DHT22;30950;53.086;21.576;2022-09-09T14:02:37;12.20;99.90
45207;DHT22;30950;53.086;21.576;2022-09-09T14:05:06;12.20;99.90
45207;DHT22;30950;53.086;21.576;2022-09-09T14:07:33;12.10;99.90
45207;DHT22;30950;53.086;21.576;2022-09-09T14:10:01;12.20;99.90
45207;DHT22;30950;53.086;21.576;2022-09-09T14:12:28;12.10;99.90
45207;DHT22;30950;53.086;21.576;2022-09-09T14:14:55;12.20;99.90
45207;DHT22;30950;53.086;21.576;2022-09-09T14:17:23;12.20;99.90
45207;DHT22;30950;53.086;21.576;2022-09-09T14:19:52;12.20;99.90
45207;DHT22;30950;53.086;21.576;2022-09-09T14:22:19;12.20;99.90
45207;DHT22;30950;53.086;21.576;2022-09-09T14:24:46;12.20;99.90
45207;DHT22;30950;53.086;21.576;2022-09-09T14:27:14;12.20;99.90
45207;DHT22;30950;53.086;21.576;2022-09-09T14:29:41;12.30;99.90
45207;DHT22;30950;53.086;21.576;2022-09-09T14:32:11;12.30;99.90
45207;DHT22;30950;53.086;21.576;2022-09-09T14:34:39;12.30;99.90
45207;DHT22;30950;53.086;21.576;2022-09-09T14:37:06;12.30;99.90
45207;DHT22;30950;53.086;21.576;2022-09-09T14:39:33;12.30;99.90
45207;DHT22;30950;53.086;21.576;2022-09-09T14:42:01;12.30;99.90
45207;DHT22;30950;53.086;21.576;2022-09-09T14:44:29;12.40;99.90
45207;DHT22;30950;53.086;21.576;2022-09-09T14:46:56;12.30;99.90
45207;DHT22;30950;53.086;21.576;2022-09-09T14:49:23;12.30;99.90
45207;DHT22;30950;53.086;21.576;2022-09-09T14:51:51;12.30;99.90
45207;DHT22;30950;53.086;21.576;2022-09-09T14:54:18;12.30;99.90
45207;DHT22;30950;53.086;21.576;2022-09-09T14:56:45;12.30;99.90
45207;DHT22;30950;53.086;21.576;2022-09-09T14:59:14;12.30;99.90
45207;DHT22;30950;53.086;21.576;2022-09-09T15:01:41;12.30;99.90
45207;DHT22;30950;53.086;21.576;2022-09-09T15:04:12;12.30;99.90
45207;DHT22;30950;53.086;21.576;2022-09-09T15:06:39;12.30;99.90
45207;DHT22;30950;53.086;21.576;2022-09-09T15:09:09;12.30;99.90
45207;DHT22;30950;53.086;21.576;2022-09-09T15:11:37;12.30;99.90
45207;DHT22;30950;53.086;21.576;2022-09-09T15:14:06;12.30;99.90
45207;DHT22;30950;53.086;21.576;2022-09-09T15:16:34;12.30;99.90
45207;DHT22;30950;53.086;21.576;2022-09-09T15:19:02;12.30;99.90
45207;DHT22;30950;53.086;21.576;2022-09-09T15:21:32;12.30;99.90
45207;DHT22;30950;53.086;21.576;2022-09-09T15:24:00;12.30;99.90
45207;DHT22;30950;53.086;21.576;2022-09-09T15:26:28;12.20;99.90
45207;DHT22;30950;53.086;21.576;2022-09-09T15:28:56;12.30;99.90
45207;DHT22;30950;53.086;21.576;2022-09-09T15:31:30;12.30;99.90
45207;DHT22;30950;53.086;21.576;2022-09-09T15:34:04;12.30;99.90
45207;DHT22;30950;53.086;21.576;2022-09-09T15:36:37;12.30;99.90
45207;DHT22;30950;53.086;21.576;2022-09-09T15:39:07;12.30;99.90
45207;DHT22;30950;53.086;21.576;2022-09-09T15:41:35;12.30;99.90
45207;DHT22;30950;53.086;21.576;2022-09-09T15:44:02;12.30;99.90
45207;DHT22;30950;53.086;21.576;2022-09-09T15:46:32;12.30;99.90
45207;DHT22;30950;53.086;21.576;2022-09-09T15:51:43;12.20;99.90
45207;DHT22;30950;53.086;21.576;2022-09-09T15:54:16;12.30;99.90
45207;DHT22;30950;53.086;21.576;2022-09-09T15:56:46;12.30;99.90
45207;DHT22;30950;53.086;21.576;2022-09-09T15:59:16;12.30;99.90
45207;DHT22;30950;53.086;21.576;2022-09-09T16:01:43;12.30;99.90
45207;DHT22;30950;53.086;21.576;2022-09-09T16:04:11;12.30;99.90
45207;DHT22;30950;53.086;21.576;2022-09-09T16:06:39;12.30;99.90
45207;DHT22;30950;53.086;21.576;2022-09-09T16:09:07;12.30;99.90
45207;DHT22;30950;53.086;21.576;2022-09-09T16:11:37;12.30;99.90
45207;DHT22;30950;53.086;21.576;2022-09-09T16:14:05;12.30;99.90
45207;DHT22;30950;53.086;21.576;2022-09-09T16:16:34;12.30;99.90
45207;DHT22;30950;53.086;21.576;2022-09-09T16:19:05;12.20;99.90
45207;DHT22;30950;53.086;21.576;2022-09-09T16:21:39;12.20;99.90
45207;DHT22;30950;53.086;21.576;2022-09-09T16:24:08;12.20;99.90
45207;DHT22;30950;53.086;21.576;2022-09-09T16:26:38;12.30;99.90
45207;DHT22;30950;53.086;21.576;2022-09-09T16:29:05;12.30;99.90
45207;DHT22;30950;53.086;21.576;2022-09-09T16:31:33;12.30;99.90
45207;DHT22;30950;53.086;21.576;2022-09-09T16:34:01;12.30;99.90
45207;DHT22;30950;53.086;21.576;2022-09-09T16:36:32;12.20;99.90
45207;DHT22;30950;53.086;21.576;2022-09-09T16:39:06;12.20;99.90
45207;DHT22;30950;53.086;21.576;2022-09-09T16:41:34;12.20;99.90
45207;DHT22;30950;53.086;21.576;2022-09-09T16:44:04;12.20;99.90
45207;DHT22;30950;53.086;21.576;2022-09-09T16:46:35;12.20;99.90
45207;DHT22;30950;53.086;21.576;2022-09-09T16:49:05;12.20;99.90
45207;DHT22;30950;53.086;21.576;2022-09-09T16:51:46;12.20;99.90
45207;DHT22;30950;53.086;21.576;2022-09-09T16:54:15;12.20;99.90
45207;DHT22;30950;53.086;21.576;2022-09-09T16:56:45;12.20;99.90
45207;DHT22;30950;53.086;21.576;2022-09-09T16:59:15;12.20;99.90
45207;DHT22;30950;53.086;21.576;2022-09-09T17:01:45;12.20;99.90
45207;DHT22;30950;53.086;21.576;2022-09-09T17:04:21;12.20;99.90
45207;DHT22;30950;53.086;21.576;2022-09-09T17:06:52;12.10;99.90
45207;DHT22;30950;53.086;21.576;2022-09-09T17:09:21;12.10;99.90
45207;DHT22;30950;53.086;21.576;2022-09-09T17:11:49;12.10;99.90
45207;DHT22;30950;53.086;21.576;2022-09-09T17:14:20;12.10;99.90
45207;DHT22;30950;53.086;21.576;2022-09-09T17:16:48;12.10;99.90
45207;DHT22;30950;53.086;21.576;2022-09-09T17:19:16;12.10;99.90
45207;DHT22;30950;53.086;21.576;2022-09-09T17:21:43;12.10;99.90
45207;DHT22;30950;53.086;21.576;2022-09-09T17:24:34;12.10;99.90
45207;DHT22;30950;53.086;21.576;2022-09-09T17:27:02;12.10;99.90
45207;DHT22;30950;53.086;21.576;2022-09-09T17:29:29;12.00;99.90
45207;DHT22;30950;53.086;21.576;2022-09-09T17:31:56;12.00;99.90
45207;DHT22;30950;53.086;21.576;2022-09-09T17:34:24;12.00;99.90
45207;DHT22;30950;53.086;21.576;2022-09-09T17:36:52;12.00;99.90
45207;DHT22;30950;53.086;21.576;2022-09-09T17:39:19;12.00;99.90
45207;DHT22;30950;53.086;21.576;2022-09-09T17:41:47;12.00;99.90
45207;DHT22;30950;53.086;21.576;2022-09-09T17:44:14;12.00;99.90
45207;DHT22;30950;53.086;21.576;2022-09-09T17:46:43;12.00;99.90